createdAt,value
2022-09-05T00:02:03.656Z,2.75
2022-09-05T00:04:56.018Z,3.17
2022-09-05T00:08:05.290Z,2.67
2022-09-05T00:11:14.406Z,3.00
2022-09-05T00:13:46.512Z,2.75
2022-09-05T00:16:48.595Z,3.20
2022-09-05T00:24:17.163Z,2.83
2022-09-05T00:24:36.741Z,3.03
2022-09-05T00:25:50.044Z,3.00
2022-09-05T00:28:46.835Z,3.05
2022-09-05T00:31:53.956Z,2.90
2022-09-05T00:34:57.743Z,3.25
2022-09-05T00:37:46.894Z,3.33
2022-09-05T00:40:26.550Z,3.22
2022-09-05T00:43:14.750Z,2.55
2022-09-05T00:45:58.737Z,2.95
2022-09-05T00:48:38.983Z,3.17
2022-09-05T00:51:34.870Z,3.03
2022-09-05T00:54:01.946Z,3.25
2022-09-05T00:57:03.979Z,3.35
2022-09-05T01:00:18.002Z,3.15
2022-09-05T01:03:09.964Z,3.55
2022-09-05T01:06:32.124Z,3.15
2022-09-05T01:09:38.739Z,3.22
2022-09-05T01:12:35.237Z,3.00
2022-09-05T01:15:41.470Z,3.55
2022-09-05T01:18:29.320Z,2.92
2022-09-05T01:21:12.095Z,3.67
2022-09-05T01:24:11.972Z,3.38
2022-09-05T01:27:42.270Z,3.90
2022-09-05T01:30:45.442Z,3.35
2022-09-05T01:33:31.488Z,3.38
2022-09-05T01:36:13.494Z,3.60
2022-09-05T01:40:10.526Z,3.28
2022-09-05T01:42:05.342Z,3.35
2022-09-05T01:45:06.167Z,3.88
2022-09-05T01:47:54.041Z,3.38
2022-09-05T01:50:48.000Z,3.58
2022-09-05T01:53:31.651Z,3.42
2022-09-05T01:56:24.453Z,3.53
2022-09-05T01:59:34.111Z,3.50
2022-09-05T02:02:50.081Z,3.67
2022-09-05T02:05:59.356Z,4.25
2022-09-05T02:08:58.853Z,3.65
2022-09-05T02:11:49.773Z,3.35
2022-09-05T02:14:54.307Z,4.13
2022-09-05T02:17:50.098Z,3.65
2022-09-05T02:23:41.649Z,3.20
2022-09-05T02:26:23.454Z,3.67
2022-09-05T02:29:29.057Z,4.20
2022-09-05T02:32:40.508Z,3.88
2022-09-05T02:35:10.211Z,3.65
2022-09-05T02:39:22.685Z,4.18
2022-09-05T02:45:09.109Z,3.70
2022-09-05T02:45:14.649Z,3.67
2022-09-05T02:47:22.784Z,3.55
2022-09-05T02:56:48.766Z,3.70
2022-09-05T02:57:34.200Z,3.88
2022-09-05T02:57:37.968Z,4.82
2022-09-05T03:00:11.387Z,3.67
2022-09-05T03:03:20.408Z,3.17
2022-09-05T03:06:08.945Z,3.33
2022-09-05T03:09:09.895Z,3.75
2022-09-05T03:12:29.096Z,3.17
2022-09-05T03:15:22.913Z,3.20
2022-09-05T03:18:31.450Z,3.40
2022-09-05T03:21:29.481Z,3.40
2022-09-05T03:24:30.200Z,3.63
2022-09-05T03:27:31.965Z,3.63
2022-09-05T03:30:25.152Z,3.25
2022-09-05T03:33:31.699Z,3.28
2022-09-05T03:36:22.337Z,3.38
2022-09-05T03:38:49.916Z,3.22
2022-09-05T03:41:49.197Z,3.97
2022-09-05T03:44:50.163Z,3.58
2022-09-05T03:47:46.736Z,3.30
2022-09-05T03:55:05.922Z,3.28
2022-09-05T03:57:13.709Z,3.38
2022-09-05T03:57:33.703Z,3.50
2022-09-05T04:00:08.301Z,2.80
2022-09-05T04:08:31.880Z,3.17
2022-09-05T04:09:50.997Z,3.30
2022-09-05T04:12:22.781Z,3.28
2022-09-05T04:15:00.841Z,3.53
2022-09-05T04:17:45.245Z,3.40
2022-09-05T04:20:40.420Z,2.80
2022-09-05T04:24:09.475Z,3.17
2022-09-05T04:26:55.737Z,2.80
2022-09-05T04:30:05.081Z,2.80
2022-09-05T04:33:17.001Z,3.00
2022-09-05T04:36:19.153Z,3.75
2022-09-05T04:39:06.744Z,3.15
2022-09-05T04:41:40.163Z,2.95
2022-09-05T04:44:15.587Z,2.92
2022-09-05T04:46:52.114Z,3.15
2022-09-05T04:49:33.627Z,2.65
2022-09-05T04:52:54.550Z,3.17
2022-09-05T04:55:26.099Z,3.22
2022-09-05T04:59:37.609Z,2.60
2022-09-05T05:06:16.121Z,2.92
2022-09-05T05:06:17.343Z,3.05
2022-09-05T05:07:26.487Z,2.83
2022-09-05T05:11:10.213Z,3.58
2022-09-05T05:18:01.974Z,3.10
2022-09-05T05:18:11.660Z,5.32
2022-09-05T05:19:21.348Z,3.30
2022-09-05T05:21:57.808Z,2.90
2022-09-05T05:24:34.467Z,2.60
2022-09-05T05:27:16.903Z,3.40
2022-09-05T05:30:08.091Z,2.30
2022-09-05T05:32:45.749Z,2.63
2022-09-05T05:35:29.511Z,2.80
2022-09-05T05:38:16.531Z,2.30
2022-09-05T05:40:57.196Z,2.80
2022-09-05T05:43:42.834Z,2.42
2022-09-05T05:46:49.814Z,2.65
2022-09-05T05:49:49.399Z,2.95
2022-09-05T05:52:49.334Z,2.55
2022-09-05T05:55:51.798Z,2.40
2022-09-05T05:58:57.718Z,2.60
2022-09-05T06:01:37.640Z,2.38
2022-09-05T06:04:08.427Z,2.40
2022-09-05T06:06:56.948Z,2.70
2022-09-05T06:14:51.931Z,2.35
2022-09-05T06:14:59.170Z,2.38
2022-09-05T06:17:10.081Z,2.40
2022-09-05T06:22:04.096Z,2.28
2022-09-05T06:23:47.589Z,2.28
2022-09-05T06:26:36.158Z,2.38
2022-09-05T06:29:38.130Z,2.50
2022-09-05T06:32:58.626Z,2.38
2022-09-05T06:35:40.669Z,2.67
2022-09-05T06:38:46.807Z,2.47
2022-09-05T06:41:42.499Z,2.35
2022-09-05T06:44:37.318Z,2.97
2022-09-05T06:47:22.667Z,4.03
2022-09-05T06:50:27.732Z,2.45
2022-09-05T06:53:27.009Z,2.53
2022-09-05T06:56:26.079Z,3.08
2022-09-05T06:59:23.846Z,2.30
2022-09-05T07:02:42.713Z,2.45
2022-09-05T07:05:39.736Z,2.45
2022-09-05T07:08:48.092Z,2.40
2022-09-05T07:11:19.281Z,2.70
2022-09-05T07:14:08.189Z,2.80
2022-09-05T07:17:24.931Z,2.78
2022-09-05T07:20:22.132Z,3.90
2022-09-05T07:22:58.698Z,3.28
2022-09-05T07:25:50.462Z,2.80
2022-09-05T07:28:28.637Z,2.40
2022-09-05T07:31:14.303Z,2.50
2022-09-05T07:34:22.877Z,2.55
2022-09-05T07:36:57.833Z,2.50
2022-09-05T07:40:06.682Z,2.35
2022-09-05T07:43:22.730Z,2.30
2022-09-05T07:46:11.309Z,2.55
2022-09-05T07:48:47.740Z,2.85
2022-09-05T07:56:49.492Z,2.60
2022-09-05T07:56:55.224Z,2.00
2022-09-05T07:57:31.208Z,2.75
2022-09-05T08:00:27.163Z,2.45
2022-09-05T08:03:12.293Z,2.10
2022-09-05T08:05:50.345Z,2.55
2022-09-05T08:08:23.519Z,2.78
2022-09-05T08:11:25.058Z,2.28
2022-09-05T08:14:45.073Z,2.65
2022-09-05T08:17:21.078Z,2.15
2022-09-05T08:20:26.787Z,2.55
2022-09-05T08:23:38.393Z,2.25
2022-09-05T08:26:15.028Z,2.40
2022-09-05T08:29:00.091Z,2.15
2022-09-05T08:31:42.266Z,2.50
2022-09-05T08:34:18.472Z,2.38
2022-09-05T08:36:56.265Z,2.55
2022-09-05T08:39:29.360Z,2.65
2022-09-05T08:42:09.429Z,3.00
2022-09-05T08:46:43.161Z,2.22
2022-09-05T08:47:55.533Z,2.42
2022-09-05T08:50:33.650Z,2.22
2022-09-05T08:53:32.536Z,3.00
2022-09-05T08:56:24.419Z,2.38
2022-09-05T08:59:31.536Z,2.13
2022-09-05T09:02:37.993Z,2.55
2022-09-05T09:05:20.239Z,2.22
2022-09-05T09:08:03.903Z,2.50
2022-09-05T09:10:58.089Z,2.45
2022-09-05T09:14:08.861Z,2.25
2022-09-05T09:17:12.271Z,2.70
2022-09-05T09:19:49.577Z,2.08
2022-09-05T09:22:41.016Z,1.95
2022-09-05T09:25:18.435Z,1.92
2022-09-05T09:28:48.960Z,2.50
2022-09-05T09:31:02.803Z,2.25
2022-09-05T09:33:43.516Z,1.88
2022-09-05T09:36:30.480Z,2.60
2022-09-05T09:39:38.916Z,2.05
2022-09-05T09:42:32.466Z,1.73
2022-09-05T09:45:27.837Z,2.00
2022-09-05T09:48:47.353Z,2.58
2022-09-05T09:51:48.047Z,2.40
2022-09-05T09:54:54.946Z,2.00
2022-09-05T09:58:03.976Z,2.40
2022-09-05T10:00:55.433Z,2.08
2022-09-05T10:09:38.400Z,1.98
2022-09-05T10:10:33.267Z,2.15
2022-09-05T10:10:43.932Z,1.70
2022-09-05T10:13:08.713Z,2.05
2022-09-05T10:15:39.577Z,2.05
2022-09-05T10:18:24.534Z,2.58
2022-09-05T10:21:33.618Z,2.00
2022-09-05T10:24:49.111Z,1.92
2022-09-05T10:27:25.303Z,2.28
2022-09-05T10:30:19.862Z,2.25
2022-09-05T10:35:09.288Z,2.10
2022-09-05T10:36:39.746Z,1.92
2022-09-05T10:39:21.199Z,2.00
2022-09-05T10:42:27.006Z,2.17
2022-09-05T10:45:00.196Z,2.28
2022-09-05T10:47:55.657Z,2.33
2022-09-05T10:50:44.255Z,1.90
2022-09-05T10:53:39.247Z,2.20
2022-09-05T10:56:48.584Z,2.20
2022-09-05T11:02:20.818Z,2.00
2022-09-05T11:02:58.254Z,2.08
2022-09-05T11:05:38.186Z,2.08
2022-09-05T11:08:27.592Z,1.73
2022-09-05T11:11:28.795Z,2.13
2022-09-05T11:14:11.178Z,2.00
2022-09-05T11:17:01.669Z,1.90
2022-09-05T11:19:45.599Z,1.95
2022-09-05T11:22:23.916Z,2.05
2022-09-05T11:24:59.943Z,1.75
2022-09-05T11:27:50.973Z,1.90
2022-09-05T11:30:30.269Z,2.20
2022-09-05T11:39:48.085Z,1.95
2022-09-05T11:40:05.510Z,1.63
2022-09-05T11:40:06.174Z,2.10
2022-09-05T11:42:55.446Z,2.03
2022-09-05T11:45:45.858Z,1.80
2022-09-05T11:49:06.892Z,2.25
2022-09-05T11:52:31.067Z,2.10
2022-09-05T11:55:21.140Z,1.98
2022-09-05T11:58:44.493Z,2.20
2022-09-05T12:01:44.830Z,1.90
2022-09-05T12:05:49.440Z,2.00
2022-09-05T12:07:57.454Z,2.17
2022-09-05T12:10:46.306Z,2.22
2022-09-05T12:13:51.597Z,2.22
2022-09-05T12:16:26.838Z,2.55
2022-09-05T12:19:20.195Z,2.20
2022-09-05T12:22:34.936Z,2.08
2022-09-05T12:27:38.282Z,1.90
2022-09-05T12:29:27.795Z,2.10
2022-09-05T12:33:17.516Z,2.42
2022-09-05T12:36:12.902Z,2.33
2022-09-05T12:40:43.289Z,2.33
2022-09-05T12:42:09.640Z,2.30
2022-09-05T12:44:42.741Z,2.38
2022-09-05T12:47:16.840Z,2.17
2022-09-05T12:50:02.775Z,2.25
2022-09-05T12:52:33.758Z,2.20
2022-09-05T12:55:26.240Z,2.25
2022-09-05T13:02:27.763Z,2.50
2022-09-05T13:03:00.953Z,2.47
2022-09-05T13:04:29.679Z,2.05
2022-09-05T13:07:12.312Z,2.55
2022-09-05T13:11:10.057Z,2.63
2022-09-05T13:14:49.646Z,4.88
2022-09-05T13:15:50.994Z,2.95
2022-09-05T13:18:28.534Z,2.50
2022-09-05T13:21:23.096Z,2.95
2022-09-05T13:24:12.397Z,2.10
2022-09-05T13:26:50.105Z,2.40
2022-09-05T13:29:23.288Z,2.85
2022-09-05T13:37:55.710Z,2.30
2022-09-05T13:38:17.823Z,2.20
2022-09-05T13:38:30.664Z,2.38
2022-09-05T13:40:51.523Z,2.35
2022-09-05T13:43:27.630Z,2.53
2022-09-05T13:46:18.880Z,2.30
2022-09-05T13:49:29.770Z,2.15
2022-09-05T13:52:34.492Z,2.17
2022-09-05T13:55:33.426Z,2.30
2022-09-05T13:58:45.314Z,2.10
2022-09-05T14:02:26.645Z,2.08
2022-09-05T14:05:27.278Z,2.60
2022-09-05T14:08:17.021Z,2.00
2022-09-05T14:11:22.750Z,2.60
2022-09-05T14:15:08.351Z,2.58
2022-09-05T14:20:27.515Z,2.38
2022-09-05T14:23:07.405Z,2.40
2022-09-05T14:25:44.224Z,2.25
2022-09-05T14:28:27.207Z,2.40
2022-09-05T14:37:55.080Z,2.45
2022-09-05T14:37:55.341Z,2.50
2022-09-05T14:38:01.213Z,2.35
2022-09-05T14:41:11.882Z,2.70
2022-09-05T14:43:47.527Z,2.30
2022-09-05T14:46:52.353Z,2.35
2022-09-05T14:49:55.931Z,2.58
2022-09-05T14:52:29.994Z,2.88
2022-09-05T15:02:40.962Z,2.72
2022-09-05T15:02:53.353Z,2.45
2022-09-05T15:06:37.395Z,2.20
2022-09-05T15:12:16.059Z,2.67
2022-09-05T15:12:32.977Z,2.85
2022-09-05T15:15:07.382Z,2.72
2022-09-05T15:17:35.202Z,2.80
2022-09-05T15:20:07.671Z,2.40
2022-09-05T15:22:39.838Z,2.90
2022-09-05T15:25:17.508Z,2.72
2022-09-05T15:27:47.836Z,2.47
2022-09-05T15:30:21.081Z,2.63
2022-09-05T15:32:50.827Z,2.90
2022-09-05T15:35:36.831Z,2.65
2022-09-05T15:38:54.453Z,2.67
2022-09-05T15:41:26.840Z,2.58
2022-09-05T15:44:09.659Z,2.40
2022-09-05T15:46:51.413Z,2.58
2022-09-05T15:49:39.290Z,2.25
2022-09-05T15:52:18.700Z,2.20
2022-09-05T15:55:25.979Z,2.63
2022-09-05T16:00:51.667Z,2.22
2022-09-05T16:10:39.234Z,4.32
2022-09-05T16:10:48.476Z,2.75
2022-09-05T16:12:17.001Z,2.67
2022-09-05T16:16:20.167Z,2.70
2022-09-05T16:23:17.309Z,2.15
2022-09-05T16:23:24.106Z,2.90
2022-09-05T16:23:46.398Z,2.50
2022-09-05T16:26:25.830Z,2.55
2022-09-05T16:29:10.654Z,2.60
2022-09-05T16:32:07.774Z,2.70
2022-09-05T16:34:57.271Z,2.42
2022-09-05T16:37:40.593Z,2.58
2022-09-05T16:40:41.360Z,2.47
2022-09-05T16:43:29.547Z,2.55
2022-09-05T16:46:37.866Z,2.38
2022-09-05T16:49:41.535Z,2.70
2022-09-05T16:52:17.023Z,2.33
2022-09-05T16:55:29.466Z,2.60
2022-09-05T16:58:26.936Z,2.38
2022-09-05T17:01:25.062Z,3.20
2022-09-05T17:04:21.019Z,3.20
2022-09-05T17:07:16.965Z,3.15
2022-09-05T17:09:45.430Z,7.13
2022-09-05T17:12:27.154Z,6.25
2022-09-05T17:15:02.102Z,3.17
2022-09-05T17:18:20.466Z,3.22
2022-09-05T17:20:37.736Z,3.70
2022-09-05T17:29:18.430Z,3.80
2022-09-05T17:29:31.061Z,3.35
2022-09-05T17:29:41.271Z,2.95
2022-09-05T17:31:56.292Z,2.80
2022-09-05T17:34:46.931Z,3.45
2022-09-05T17:37:24.263Z,3.25
2022-09-05T17:40:18.013Z,2.90
2022-09-05T17:43:01.273Z,2.78
2022-09-05T17:45:51.595Z,2.53
2022-09-05T17:49:02.576Z,3.25
2022-09-05T17:51:34.548Z,3.25
2022-09-05T17:54:05.218Z,3.00
2022-09-05T17:56:40.556Z,2.60
2022-09-05T17:59:28.328Z,3.08
2022-09-05T18:02:18.886Z,3.28
2022-09-05T18:04:52.085Z,3.22
2022-09-05T18:07:31.051Z,3.55
2022-09-05T18:10:15.728Z,3.78
2022-09-05T18:13:12.452Z,3.77
2022-09-05T18:15:43.802Z,3.10
2022-09-05T18:21:25.814Z,2.65
2022-09-05T18:24:05.108Z,3.50
2022-09-05T18:26:43.764Z,3.05
2022-09-05T18:29:57.129Z,3.35
2022-09-05T18:32:12.406Z,3.50
2022-09-05T18:34:41.701Z,3.28
2022-09-05T18:37:37.744Z,3.70
2022-09-05T18:40:16.551Z,2.78
2022-09-05T18:43:10.557Z,3.50
2022-09-05T18:45:52.544Z,2.80
2022-09-05T18:48:29.979Z,3.08
2022-09-05T18:51:13.031Z,3.15
2022-09-05T18:53:47.506Z,3.30
2022-09-05T18:57:09.779Z,4.63
2022-09-05T18:59:37.368Z,3.60
2022-09-05T19:02:26.590Z,3.88
2022-09-05T19:05:15.798Z,2.97
2022-09-05T19:07:50.651Z,4.00
2022-09-05T19:10:35.577Z,4.00
2022-09-05T19:13:19.506Z,3.70
2022-09-05T19:16:33.227Z,3.47
2022-09-05T19:19:16.048Z,3.30
2022-09-05T19:22:33.332Z,3.20
2022-09-05T19:24:46.298Z,3.50
2022-09-05T19:32:24.671Z,3.58
2022-09-05T19:36:45.116Z,3.53
2022-09-05T19:36:52.705Z,3.47
2022-09-05T19:37:10.871Z,4.03
2022-09-05T19:39:57.721Z,3.38
2022-09-05T19:47:25.845Z,3.13
2022-09-05T19:47:50.279Z,3.13
2022-09-05T19:50:26.788Z,3.03
2022-09-05T19:53:07.534Z,11.93
2022-09-05T19:55:37.738Z,7.97
2022-09-05T19:58:29.276Z,4.95
2022-09-05T20:01:12.649Z,3.47
2022-09-05T20:03:53.251Z,2.97
2022-09-05T20:06:30.533Z,3.38
2022-09-05T20:09:22.598Z,2.92
2022-09-05T20:11:59.744Z,2.70
2022-09-05T20:14:31.056Z,3.30
2022-09-05T20:17:20.803Z,3.88
2022-09-05T20:19:48.663Z,3.10
2022-09-05T20:22:47.650Z,3.20
2022-09-05T20:25:47.401Z,3.75
2022-09-05T20:28:20.838Z,3.10
2022-09-05T20:30:55.603Z,3.13
2022-09-05T20:33:52.473Z,4.40
2022-09-05T20:43:12.429Z,3.70
2022-09-05T20:43:31.462Z,3.50
2022-09-05T20:43:35.652Z,3.25
2022-09-05T20:46:17.471Z,3.33
2022-09-05T20:54:15.345Z,2.45
2022-09-05T20:54:26.878Z,5.63
2022-09-05T20:54:34.866Z,4.13
2022-09-05T20:57:29.022Z,3.15
2022-09-05T21:00:04.360Z,2.63
2022-09-05T21:02:33.517Z,2.78
2022-09-05T21:05:19.850Z,3.10
2022-09-05T21:08:06.846Z,2.38
2022-09-05T21:11:06.427Z,2.70
2022-09-05T21:13:45.386Z,2.67
2022-09-05T21:16:22.914Z,2.33
2022-09-05T21:18:51.709Z,2.55
2022-09-05T21:21:30.170Z,2.60
2022-09-05T21:24:23.680Z,2.85
2022-09-05T21:26:51.259Z,2.25
2022-09-05T21:29:32.758Z,2.20
2022-09-05T21:32:03.997Z,2.30
2022-09-05T21:34:45.423Z,2.35
2022-09-05T21:37:15.584Z,2.30
2022-09-05T21:39:59.822Z,2.47
2022-09-05T21:46:55.882Z,1.90
2022-09-05T21:47:40.314Z,2.30
2022-09-05T21:48:15.342Z,2.20
2022-09-05T21:50:49.484Z,1.67
2022-09-05T21:55:19.546Z,2.05
2022-09-05T21:59:15.062Z,2.00
2022-09-05T21:59:36.659Z,2.03
2022-09-05T22:02:07.104Z,1.73
2022-09-05T22:04:41.048Z,2.10
2022-09-05T22:07:14.546Z,2.60
2022-09-05T22:09:42.013Z,1.90
2022-09-05T22:12:17.444Z,2.10
2022-09-05T22:15:08.694Z,1.65
2022-09-05T22:17:51.172Z,1.83
2022-09-05T22:20:22.912Z,1.70
2022-09-05T22:22:56.761Z,1.85
2022-09-05T22:25:31.228Z,2.15
2022-09-05T22:28:12.908Z,1.88
2022-09-05T22:30:40.208Z,1.73
2022-09-05T22:33:07.908Z,1.58
2022-09-05T22:35:37.297Z,1.50
2022-09-05T22:38:11.859Z,1.80
2022-09-05T22:40:41.814Z,1.70
2022-09-05T22:43:10.746Z,1.42
2022-09-05T22:45:39.472Z,1.50
2022-09-05T22:48:14.634Z,1.70
2022-09-05T22:50:42.646Z,1.25
2022-09-05T22:53:10.419Z,1.65
2022-09-05T22:55:41.522Z,1.40
2022-09-05T22:58:14.075Z,1.23
2022-09-05T23:00:41.779Z,1.65
2022-09-05T23:03:08.895Z,1.15
2022-09-05T23:05:36.281Z,1.10
2022-09-05T23:08:05.807Z,1.35
2022-09-05T23:10:34.007Z,1.30
2022-09-05T23:13:06.612Z,1.38
2022-09-05T23:15:35.355Z,1.30
2022-09-05T23:18:02.657Z,1.50
2022-09-05T23:20:31.873Z,1.40
2022-09-05T23:23:04.318Z,2.17
2022-09-05T23:25:32.369Z,1.20
2022-09-05T23:27:59.523Z,1.10
2022-09-05T23:30:26.633Z,1.13
2022-09-05T23:32:53.605Z,1.45
2022-09-05T23:35:20.724Z,1.00
2022-09-05T23:37:48.817Z,0.90
2022-09-05T23:40:20.170Z,1.13
2022-09-05T23:42:55.551Z,1.10
2022-09-05T23:45:24.297Z,1.13
2022-09-05T23:47:51.769Z,1.35
2022-09-05T23:50:20.583Z,0.90
2022-09-05T23:52:48.187Z,1.60
2022-09-05T23:55:18.871Z,1.30
2022-09-05T23:57:46.850Z,0.98
